»·PEaware :: N906AM KAJO-KVCV

N906AM :: KAJO-KVCV

FLIGHT INFORMATION

Flight Status: Arrived
Operator: Privately registered:
United States
More flights under this callsign
Pilot: Luiz A. (31895)
Aircraft: SOCATA TBM-900
(TBM9)
More flights by this aircraft type
Origin: KAJO Corona Mun
United States
Destination: KVCV Socal Logistics
United States
More flights between these airports :: More routes between these airports
Route: PDZ V442 APLES
File this flight plan on PilotEdge
Remarks: I-11 RATING REQUESTING
Altitude:
(Current/Filed)
11,000ft
Speed:
(Current/Filed)
250kts
Departed: 16-Nov-20 08:32 AM
Arrived: 16-Nov-20 09:25 AM
Distance/Time
Traveled:
43nm/0:53
Distance/Time
To Go:
Arrived

Flight Plot

Page will automatically refresh every two minutes.


Map Options




Map Legend


Flown Route
Filed Route
Departure Airport
Arrival Airport
Navaid (VOR, NDB)
Fix

Horizontal Profiles

Position Reports

Time Latitude Longitude Heading Altitude Ground
Speed
16-Nov-20 08:04 33.897058 -117.598319 93 535ft 0kts
16-Nov-20 08:05 33.897058 -117.598319 93 535ft 0kts
16-Nov-20 08:06 33.897058 -117.598319 93 535ft 0kts
16-Nov-20 08:07 33.897057 -117.598262 89 535ft 3kts
16-Nov-20 08:08 33.897321 -117.599651 263 532ft 19kts
16-Nov-20 08:09 33.897228 -117.605692 270 521ft 16kts
16-Nov-20 08:10 33.897197 -117.607347 268 518ft 0kts
16-Nov-20 08:11 33.897197 -117.607347 268 518ft 0kts
16-Nov-20 08:12 33.897197 -117.607347 268 518ft 0kts
16-Nov-20 08:13 33.897197 -117.607347 268 518ft 0kts
16-Nov-20 08:14 33.897606 -117.607338 89 518ft 0kts
16-Nov-20 08:15 33.897058 -117.598318 0 535ft 0kts
16-Nov-20 08:16 33.897058 -117.598318 0 535ft 0kts
16-Nov-20 08:17 33.897058 -117.598318 0 535ft 0kts
16-Nov-20 08:18 33.897058 -117.598318 0 535ft 0kts
16-Nov-20 08:19 33.897058 -117.598318 93 535ft 0kts
16-Nov-20 08:20 33.897058 -117.598318 93 535ft 0kts
16-Nov-20 08:21 33.897058 -117.598318 93 535ft 0kts
16-Nov-20 08:22 33.897058 -117.598318 93 535ft 0kts
16-Nov-20 08:23 33.897058 -117.598318 93 535ft 0kts
16-Nov-20 08:24 33.897058 -117.598318 93 535ft 0kts
16-Nov-20 08:25 33.897283 -117.598201 283 535ft 5kts
16-Nov-20 08:26 33.897252 -117.603614 269 525ft 19kts
16-Nov-20 08:28 33.897194 -117.607262 269 518ft 0kts
16-Nov-20 08:29 33.897194 -117.607262 269 518ft 0kts
16-Nov-20 08:30 33.897194 -117.607262 269 518ft 0kts
16-Nov-20 08:31 33.897285 -117.607523 313 518ft 12kts
16-Nov-20 08:32 33.897648 -117.595281 91 687ft 106kts
16-Nov-20 08:33 33.925377 -117.565640 67 1540ft 164kts
16-Nov-20 08:34 33.918942 -117.520694 52 2465ft 128kts
16-Nov-20 08:35 33.947087 -117.487952 43 3536ft 149kts
16-Nov-20 08:36 33.965514 -117.501325 210 4572ft 160kts
16-Nov-20 08:37 33.923900 -117.523108 223 5084ft 161kts
16-Nov-20 08:38 33.924094 -117.564066 8 5101ft 171kts
16-Nov-20 08:39 33.960295 -117.531854 43 5003ft 158kts
16-Nov-20 08:40 33.964343 -117.496127 183 5006ft 161kts
16-Nov-20 08:41 33.925201 -117.522880 217 5011ft 170kts
16-Nov-20 08:42 33.921904 -117.555403 22 5856ft 146kts
16-Nov-20 08:43 33.953995 -117.525119 43 6802ft 151kts
16-Nov-20 08:44 33.952746 -117.494887 202 7739ft 161kts
16-Nov-20 08:45 33.918519 -117.531892 229 8705ft 171kts
16-Nov-20 08:46 33.943574 -117.544802 57 9633ft 167kts
16-Nov-20 08:46 33.964381 -117.499838 46 10455ft 200kts
16-Nov-20 08:48 34.029821 -117.469361 24 11025ft 237kts
16-Nov-20 08:48 34.080943 -117.440336 28 11035ft 249kts
16-Nov-20 08:50 34.153785 -117.396061 28 11039ft 252kts
16-Nov-20 08:51 34.216391 -117.358399 27 11049ft 252kts
16-Nov-20 08:51 34.268951 -117.327040 27 11052ft 253kts
16-Nov-20 08:52 34.332126 -117.289760 27 11055ft 252kts
16-Nov-20 08:53 34.395328 -117.252852 27 11070ft 252kts
16-Nov-20 08:54 34.456311 -117.217780 27 11055ft 231kts
16-Nov-20 08:55 34.512287 -117.182271 36 11070ft 224kts
16-Nov-20 08:56 34.564176 -117.143386 15 10671ft 212kts
16-Nov-20 08:57 34.619030 -117.141494 353 9495ft 191kts
16-Nov-20 08:58 34.667419 -117.162548 333 8351ft 181kts
16-Nov-20 08:59 34.709936 -117.195673 324 6998ft 178kts
16-Nov-20 09:00 34.743675 -117.230214 316 6657ft 156kts
16-Nov-20 09:01 34.771763 -117.272194 299 6614ft 162kts
16-Nov-20 09:02 34.789295 -117.324219 281 5887ft 167kts
16-Nov-20 09:03 34.783501 -117.376239 210 4755ft 169kts
16-Nov-20 09:04 34.739625 -117.383040 181 4312ft 167kts
16-Nov-20 09:05 34.692758 -117.384864 181 4133ft 161kts
16-Nov-20 09:06 34.655234 -117.386547 179 3254ft 125kts
16-Nov-20 09:07 34.617543 -117.386920 179 3682ft 172kts
16-Nov-20 09:08 34.579140 -117.405684 283 4387ft 170kts
16-Nov-20 09:09 34.609027 -117.447908 306 5109ft 171kts
16-Nov-20 09:10 34.617494 -117.506299 274 5737ft 174kts
16-Nov-20 09:11 34.621064 -117.564563 275 5937ft 171kts
16-Nov-20 09:12 34.653386 -117.573161 32 6271ft 158kts
16-Nov-20 09:13 34.694497 -117.541198 33 6931ft 185kts
16-Nov-20 09:14 34.735003 -117.509935 33 6951ft 162kts
16-Nov-20 09:15 34.772039 -117.481836 32 6961ft 154kts
16-Nov-20 09:16 34.806246 -117.452453 74 6967ft 151kts
16-Nov-20 09:17 34.798687 -117.402099 103 6986ft 152kts
16-Nov-20 09:18 34.787892 -117.351905 103 6980ft 153kts
16-Nov-20 09:19 34.757289 -117.318865 153 6981ft 157kts
16-Nov-20 09:20 34.715009 -117.311024 185 6774ft 159kts
16-Nov-20 09:21 34.669401 -117.318808 190 4768ft 170kts
16-Nov-20 09:22 34.633496 -117.331624 205 3610ft 115kts
16-Nov-20 09:23 34.609771 -117.355781 223 3163ft 110kts
16-Nov-20 09:24 34.595698 -117.372321 224 2860ft 27kts
16-Nov-20 09:25 34.593689 -117.372718 181 2860ft 0kts
16-Nov-20 09:26 34.593104 -117.372741 187 2860ft 0kts
16-Nov-20 09:27 34.591000 -117.374984 222 2865ft 15kts
16-Nov-20 09:28 34.588676 -117.374749 184 2867ft 0kts

Navigation Log

Ident Type
Flight plan parsing failed, navigation log unavailable